sensor_id;sensor_type;location;lat;lon;timestamp;pressure;altitude;pressure_sealevel;temperature;humidity
71344;BME280;59146;43.850;25.948;2023-07-13T00:00:17;100897.72;;;27.77;51.22
71344;BME280;59146;43.850;25.948;2023-07-13T00:02:43;100914.41;;;27.73;51.49
71344;BME280;59146;43.850;25.948;2023-07-13T00:05:09;100909.88;;;27.73;51.45
71344;BME280;59146;43.850;25.948;2023-07-13T00:07:35;100892.69;;;27.46;51.99
71344;BME280;59146;43.850;25.948;2023-07-13T00:10:00;100909.69;;;27.53;52.16
71344;BME280;59146;43.850;25.948;2023-07-13T00:12:32;100903.91;;;27.57;51.86
71344;BME280;59146;43.850;25.948;2023-07-13T00:14:59;100906.03;;;27.61;52.07
71344;BME280;59146;43.850;25.948;2023-07-13T00:17:26;100940.84;;;27.97;54.39
71344;BME280;59146;43.850;25.948;2023-07-13T00:19:52;100945.31;;;27.90;54.65
71344;BME280;59146;43.850;25.948;2023-07-13T00:22:18;100909.41;;;27.48;56.20
71344;BME280;59146;43.850;25.948;2023-07-13T00:24:44;100948.53;;;27.58;57.15
71344;BME280;59146;43.850;25.948;2023-07-13T00:27:10;100956.13;;;27.54;57.37
71344;BME280;59146;43.850;25.948;2023-07-13T00:29:36;100902.66;;;27.17;58.01
71344;BME280;59146;43.850;25.948;2023-07-13T00:32:06;100940.91;;;27.25;58.18
71344;BME280;59146;43.850;25.948;2023-07-13T00:34:32;100910.41;;;27.05;57.74
71344;BME280;59146;43.850;25.948;2023-07-13T00:36:58;100909.19;;;27.08;57.55
71344;BME280;59146;43.850;25.948;2023-07-13T00:39:24;100813.28;;;26.53;56.31
71344;BME280;59146;43.850;25.948;2023-07-13T00:41:50;100931.22;;;27.24;55.67
71344;BME280;59146;43.850;25.948;2023-07-13T00:44:17;100879.81;;;27.00;55.20
71344;BME280;59146;43.850;25.948;2023-07-13T00:46:42;100917.81;;;27.24;55.40
71344;BME280;59146;43.850;25.948;2023-07-13T00:49:11;100864.81;;;27.05;55.00
71344;BME280;59146;43.850;25.948;2023-07-13T00:51:55;100847.09;;;26.90;55.42
71344;BME280;59146;43.850;25.948;2023-07-13T00:54:28;100867.88;;;27.02;55.91
71344;BME280;59146;43.850;25.948;2023-07-13T00:56:57;100891.13;;;27.16;56.06
71344;BME280;59146;43.850;25.948;2023-07-13T00:59:24;100931.88;;;27.26;56.45
71344;BME280;59146;43.850;25.948;2023-07-13T01:01:50;100845.75;;;26.79;56.42
71344;BME280;59146;43.850;25.948;2023-07-13T01:04:17;100865.19;;;26.81;56.38
71344;BME280;59146;43.850;25.948;2023-07-13T01:06:43;100864.16;;;26.82;56.54
71344;BME280;59146;43.850;25.948;2023-07-13T01:09:10;100795.56;;;26.37;56.76
71344;BME280;59146;43.850;25.948;2023-07-13T01:11:36;100884.47;;;26.91;56.86
71344;BME280;59146;43.850;25.948;2023-07-13T01:14:02;100921.84;;;27.14;57.16
71344;BME280;59146;43.850;25.948;2023-07-13T01:16:31;100874.22;;;26.80;57.37
71344;BME280;59146;43.850;25.948;2023-07-13T01:18:57;100826.31;;;26.56;57.32
71344;BME280;59146;43.850;25.948;2023-07-13T01:21:23;100912.13;;;27.13;57.35
71344;BME280;59146;43.850;25.948;2023-07-13T01:23:49;100872.00;;;26.84;57.54
71344;BME280;59146;43.850;25.948;2023-07-13T01:26:14;100928.69;;;27.16;57.89
71344;BME280;59146;43.850;25.948;2023-07-13T01:28:40;100840.44;;;26.50;57.85
71344;BME280;59146;43.850;25.948;2023-07-13T01:31:05;100932.31;;;26.94;58.53
71344;BME280;59146;43.850;25.948;2023-07-13T01:33:31;100946.63;;;27.01;59.70
71344;BME280;59146;43.850;25.948;2023-07-13T01:35:57;100922.75;;;26.85;59.68
71344;BME280;59146;43.850;25.948;2023-07-13T01:38:24;100934.91;;;26.88;60.86
71344;BME280;59146;43.850;25.948;2023-07-13T01:40:51;100905.72;;;26.63;61.42
71344;BME280;59146;43.850;25.948;2023-07-13T01:43:17;100922.16;;;26.60;62.00
71344;BME280;59146;43.850;25.948;2023-07-13T01:45:43;100859.28;;;26.13;62.40
71344;BME280;59146;43.850;25.948;2023-07-13T01:48:09;100888.28;;;26.24;63.56
71344;BME280;59146;43.850;25.948;2023-07-13T01:50:35;100881.75;;;26.12;63.48
71344;BME280;59146;43.850;25.948;2023-07-13T01:53:01;100884.63;;;26.02;64.09
71344;BME280;59146;43.850;25.948;2023-07-13T01:55:28;100938.44;;;26.30;64.27
71344;BME280;59146;43.850;25.948;2023-07-13T01:57:55;100904.03;;;26.04;64.34
71344;BME280;59146;43.850;25.948;2023-07-13T02:00:20;100923.19;;;26.16;64.41
71344;BME280;59146;43.850;25.948;2023-07-13T02:02:46;100913.22;;;26.10;64.31
71344;BME280;59146;43.850;25.948;2023-07-13T02:05:12;100931.78;;;26.26;64.23
71344;BME280;59146;43.850;25.948;2023-07-13T02:07:38;100950.34;;;26.27;64.66
71344;BME280;59146;43.850;25.948;2023-07-13T02:10:05;100926.03;;;26.14;64.65
71344;BME280;59146;43.850;25.948;2023-07-13T02:12:31;100941.38;;;26.20;65.14
71344;BME280;59146;43.850;25.948;2023-07-13T02:14:56;100915.47;;;25.98;65.67
71344;BME280;59146;43.850;25.948;2023-07-13T02:17:22;100929.97;;;26.04;66.26
71344;BME280;59146;43.850;25.948;2023-07-13T02:19:47;100892.72;;;25.79;67.85
71344;BME280;59146;43.850;25.948;2023-07-13T02:22:13;100945.00;;;26.05;69.03
71344;BME280;59146;43.850;25.948;2023-07-13T02:24:38;100870.66;;;25.63;69.42
71344;BME280;59146;43.850;25.948;2023-07-13T02:27:04;100947.00;;;26.11;70.67
71344;BME280;59146;43.850;25.948;2023-07-13T02:29:29;100892.34;;;25.68;70.33
71344;BME280;59146;43.850;25.948;2023-07-13T02:31:55;100917.66;;;25.80;70.51
71344;BME280;59146;43.850;25.948;2023-07-13T02:34:20;100904.81;;;25.75;68.17
71344;BME280;59146;43.850;25.948;2023-07-13T02:36:45;100919.78;;;25.84;67.51
71344;BME280;59146;43.850;25.948;2023-07-13T02:39:12;100935.38;;;25.95;68.29
71344;BME280;59146;43.850;25.948;2023-07-13T02:41:38;100861.22;;;25.52;64.17
71344;BME280;59146;43.850;25.948;2023-07-13T02:44:03;100934.50;;;26.03;63.39
71344;BME280;59146;43.850;25.948;2023-07-13T02:46:33;100933.91;;;26.16;62.59
71344;BME280;59146;43.850;25.948;2023-07-13T02:48:59;100950.53;;;26.26;61.57
71344;BME280;59146;43.850;25.948;2023-07-13T02:51:25;100941.84;;;26.24;60.91
71344;BME280;59146;43.850;25.948;2023-07-13T02:53:51;100915.53;;;26.27;60.32
71344;BME280;59146;43.850;25.948;2023-07-13T02:56:16;100885.22;;;26.12;60.18
71344;BME280;59146;43.850;25.948;2023-07-13T02:58:42;100914.44;;;26.36;60.06
71344;BME280;59146;43.850;25.948;2023-07-13T03:01:08;100933.47;;;26.56;59.77
71344;BME280;59146;43.850;25.948;2023-07-13T03:03:34;100891.72;;;26.47;59.38
71344;BME280;59146;43.850;25.948;2023-07-13T03:06:01;100922.47;;;26.80;58.36
71344;BME280;59146;43.850;25.948;2023-07-13T03:08:28;100896.94;;;26.69;58.29
71344;BME280;59146;43.850;25.948;2023-07-13T03:11:05;100852.63;;;26.52;58.15
71344;BME280;59146;43.850;25.948;2023-07-13T03:13:31;100926.28;;;27.07;57.92
71344;BME280;59146;43.850;25.948;2023-07-13T03:15:57;100871.75;;;26.79;57.50
71344;BME280;59146;43.850;25.948;2023-07-13T03:18:22;100935.59;;;27.89;55.21
71344;BME280;59146;43.850;25.948;2023-07-13T03:20:51;100869.16;;;28.25;53.02
71344;BME280;59146;43.850;25.948;2023-07-13T03:23:18;100907.41;;;29.15;50.92
71344;BME280;59146;43.850;25.948;2023-07-13T03:25:44;100882.63;;;29.52;49.17
71344;BME280;59146;43.850;25.948;2023-07-13T03:28:11;100878.25;;;30.10;47.43
71344;BME280;59146;43.850;25.948;2023-07-13T03:30:36;100913.03;;;31.02;45.67
71344;BME280;59146;43.850;25.948;2023-07-13T03:33:02;100925.91;;;31.69;44.12
71344;BME280;59146;43.850;25.948;2023-07-13T03:35:27;100909.31;;;31.96;42.80
71344;BME280;59146;43.850;25.948;2023-07-13T03:37:53;100927.94;;;32.41;42.47
71344;BME280;59146;43.850;25.948;2023-07-13T03:40:18;100877.41;;;32.41;41.84
71344;BME280;59146;43.850;25.948;2023-07-13T03:42:44;100878.88;;;32.92;40.49
71344;BME280;59146;43.850;25.948;2023-07-13T03:45:09;100904.97;;;33.45;39.66
71344;BME280;59146;43.850;25.948;2023-07-13T03:47:35;100881.03;;;33.72;38.47
71344;BME280;59146;43.850;25.948;2023-07-13T03:50:00;100864.44;;;34.03;37.57
71344;BME280;59146;43.850;25.948;2023-07-13T03:52:26;100931.69;;;34.64;37.43
71344;BME280;59146;43.850;25.948;2023-07-13T03:54:51;100941.09;;;35.13;36.51
71344;BME280;59146;43.850;25.948;2023-07-13T03:57:16;100887.88;;;35.12;35.83
71344;BME280;59146;43.850;25.948;2023-07-13T03:59:42;100888.25;;;35.49;35.23
71344;BME280;59146;43.850;25.948;2023-07-13T04:02:07;100929.06;;;35.99;34.66
71344;BME280;59146;43.850;25.948;2023-07-13T04:04:33;100928.75;;;36.33;33.39
71344;BME280;59146;43.850;25.948;2023-07-13T04:06:58;100904.69;;;36.25;33.99
71344;BME280;59146;43.850;25.948;2023-07-13T04:09:24;100927.03;;;36.65;33.48
71344;BME280;59146;43.850;25.948;2023-07-13T04:11:50;100937.69;;;37.15;32.62
71344;BME280;59146;43.850;25.948;2023-07-13T04:14:15;100939.75;;;37.57;32.11
71344;BME280;59146;43.850;25.948;2023-07-13T04:16:41;100908.72;;;36.61;33.14
71344;BME280;59146;43.850;25.948;2023-07-13T04:19:08;100937.47;;;36.35;34.08
71344;BME280;59146;43.850;25.948;2023-07-13T04:21:35;100955.50;;;36.80;33.05
71344;BME280;59146;43.850;25.948;2023-07-13T04:24:01;100955.31;;;36.64;33.48
71344;BME280;59146;43.850;25.948;2023-07-13T04:26:26;100950.75;;;37.13;32.90
71344;BME280;59146;43.850;25.948;2023-07-13T04:28:52;100914.31;;;37.46;31.90
71344;BME280;59146;43.850;25.948;2023-07-13T04:31:17;100951.13;;;38.12;31.07
71344;BME280;59146;43.850;25.948;2023-07-13T04:33:43;100955.97;;;37.73;31.72
71344;BME280;59146;43.850;25.948;2023-07-13T04:36:09;100949.31;;;38.28;30.67
71344;BME280;59146;43.850;25.948;2023-07-13T04:38:35;100873.56;;;38.40;29.71
71344;BME280;59146;43.850;25.948;2023-07-13T04:41:03;100902.56;;;38.66;29.77
71344;BME280;59146;43.850;25.948;2023-07-13T04:43:29;100924.34;;;38.09;30.76
71344;BME280;59146;43.850;25.948;2023-07-13T04:45:55;100896.09;;;37.83;31.10
71344;BME280;59146;43.850;25.948;2023-07-13T04:48:21;100969.28;;;38.38;30.83
71344;BME280;59146;43.850;25.948;2023-07-13T04:50:48;100945.13;;;37.78;31.46
71344;BME280;59146;43.850;25.948;2023-07-13T04:53:19;100951.25;;;37.64;31.74
71344;BME280;59146;43.850;25.948;2023-07-13T04:55:44;100953.84;;;37.22;32.26
71344;BME280;59146;43.850;25.948;2023-07-13T04:58:10;100968.78;;;37.19;33.08
71344;BME280;59146;43.850;25.948;2023-07-13T05:00:35;100953.28;;;36.98;32.82
71344;BME280;59146;43.850;25.948;2023-07-13T05:03:02;100940.06;;;37.07;32.78
71344;BME280;59146;43.850;25.948;2023-07-13T05:05:28;100913.84;;;36.57;33.65
71344;BME280;59146;43.850;25.948;2023-07-13T05:07:54;100944.09;;;36.23;34.55
71344;BME280;59146;43.850;25.948;2023-07-13T05:10:19;100933.81;;;35.75;35.70
71344;BME280;59146;43.850;25.948;2023-07-13T05:12:45;100976.97;;;36.21;34.80
71344;BME280;59146;43.850;25.948;2023-07-13T05:15:11;100973.50;;;35.76;36.00
71344;BME280;59146;43.850;25.948;2023-07-13T05:17:37;100958.19;;;35.25;38.01
71344;BME280;59146;43.850;25.948;2023-07-13T05:20:05;100957.72;;;34.65;39.48
71344;BME280;59146;43.850;25.948;2023-07-13T05:22:31;100951.84;;;34.57;39.59
71344;BME280;59146;43.850;25.948;2023-07-13T05:24:56;100986.22;;;35.02;39.25
71344;BME280;59146;43.850;25.948;2023-07-13T05:27:21;100950.28;;;33.80;41.46
71344;BME280;59146;43.850;25.948;2023-07-13T05:29:47;100980.88;;;34.33;41.53
71344;BME280;59146;43.850;25.948;2023-07-13T05:32:13;100934.09;;;34.77;39.65
71344;BME280;59146;43.850;25.948;2023-07-13T05:34:38;100988.03;;;34.27;41.63
71344;BME280;59146;43.850;25.948;2023-07-13T05:37:04;100979.13;;;34.27;42.43
71344;BME280;59146;43.850;25.948;2023-07-13T05:39:29;100951.06;;;34.10;41.40
71344;BME280;59146;43.850;25.948;2023-07-13T05:41:55;100995.59;;;34.14;42.16
71344;BME280;59146;43.850;25.948;2023-07-13T05:44:20;100978.97;;;34.45;40.96
71344;BME280;59146;43.850;25.948;2023-07-13T05:46:46;100984.16;;;34.47;40.87
71344;BME280;59146;43.850;25.948;2023-07-13T05:49:11;100938.78;;;34.19;40.56
71344;BME280;59146;43.850;25.948;2023-07-13T05:51:37;100928.88;;;34.13;40.40
71344;BME280;59146;43.850;25.948;2023-07-13T05:54:02;100932.19;;;34.50;39.76
71344;BME280;59146;43.850;25.948;2023-07-13T05:56:28;100996.28;;;34.79;39.25
71344;BME280;59146;43.850;25.948;2023-07-13T05:58:53;100946.91;;;34.42;39.76
71344;BME280;59146;43.850;25.948;2023-07-13T06:01:19;100954.47;;;34.05;40.50
71344;BME280;59146;43.850;25.948;2023-07-13T06:03:46;101000.19;;;34.13;41.13
71344;BME280;59146;43.850;25.948;2023-07-13T06:06:12;100962.41;;;33.66;41.10
71344;BME280;59146;43.850;25.948;2023-07-13T06:08:38;100947.56;;;33.80;40.16
71344;BME280;59146;43.850;25.948;2023-07-13T06:11:06;101002.16;;;33.95;40.56
71344;BME280;59146;43.850;25.948;2023-07-13T06:13:32;100998.88;;;33.33;42.30
71344;BME280;59146;43.850;25.948;2023-07-13T06:15:58;101001.59;;;32.97;43.34
71344;BME280;59146;43.850;25.948;2023-07-13T06:18:23;100996.06;;;33.40;42.39
71344;BME280;59146;43.850;25.948;2023-07-13T06:20:49;101007.91;;;33.87;41.08
71344;BME280;59146;43.850;25.948;2023-07-13T06:23:14;100968.41;;;33.79;40.89
71344;BME280;59146;43.850;25.948;2023-07-13T06:25:40;100982.25;;;34.12;40.75
71344;BME280;59146;43.850;25.948;2023-07-13T06:28:05;100965.38;;;33.99;40.52
71344;BME280;59146;43.850;25.948;2023-07-13T06:30:31;101010.25;;;34.71;39.68
71344;BME280;59146;43.850;25.948;2023-07-13T06:32:57;100997.81;;;34.86;39.14
71344;BME280;59146;43.850;25.948;2023-07-13T06:35:22;100971.97;;;35.24;38.98
71344;BME280;59146;43.850;25.948;2023-07-13T06:37:47;101018.59;;;35.60;38.05
71344;BME280;59146;43.850;25.948;2023-07-13T06:40:13;101000.22;;;35.23;38.41
71344;BME280;59146;43.850;25.948;2023-07-13T06:42:38;101020.56;;;35.37;38.87
71344;BME280;59146;43.850;25.948;2023-07-13T06:45:04;100994.00;;;35.39;38.05
71344;BME280;59146;43.850;25.948;2023-07-13T06:47:30;100993.44;;;35.65;37.94
71344;BME280;59146;43.850;25.948;2023-07-13T06:49:55;101008.78;;;35.59;38.95
71344;BME280;59146;43.850;25.948;2023-07-13T06:52:20;100934.22;;;35.22;38.54
71344;BME280;59146;43.850;25.948;2023-07-13T06:54:46;100992.44;;;35.14;39.11
71344;BME280;59146;43.850;25.948;2023-07-13T06:57:11;101001.75;;;35.91;37.02
71344;BME280;59146;43.850;25.948;2023-07-13T06:59:37;101008.69;;;36.16;37.72
71344;BME280;59146;43.850;25.948;2023-07-13T07:02:02;101007.63;;;36.00;38.12
71344;BME280;59146;43.850;25.948;2023-07-13T07:04:28;101000.53;;;36.16;37.35
71344;BME280;59146;43.850;25.948;2023-07-13T07:06:54;100988.56;;;35.67;36.82
71344;BME280;59146;43.850;25.948;2023-07-13T07:09:19;100969.13;;;35.58;36.92
71344;BME280;59146;43.850;25.948;2023-07-13T07:11:45;101005.72;;;35.84;37.36
71344;BME280;59146;43.850;25.948;2023-07-13T07:14:10;101002.09;;;36.28;36.98
71344;BME280;59146;43.850;25.948;2023-07-13T07:16:35;100983.78;;;36.40;36.31
71344;BME280;59146;43.850;25.948;2023-07-13T07:19:01;100959.56;;;36.22;37.23
71344;BME280;59146;43.850;25.948;2023-07-13T07:21:26;100968.13;;;36.47;36.31
71344;BME280;59146;43.850;25.948;2023-07-13T07:23:52;100981.84;;;36.74;36.45
71344;BME280;59146;43.850;25.948;2023-07-13T07:26:18;100999.19;;;36.90;36.67
71344;BME280;59146;43.850;25.948;2023-07-13T07:28:43;101002.69;;;36.68;36.11
71344;BME280;59146;43.850;25.948;2023-07-13T07:31:09;100962.19;;;36.50;37.02
71344;BME280;59146;43.850;25.948;2023-07-13T07:33:35;100989.34;;;36.67;35.25
71344;BME280;59146;43.850;25.948;2023-07-13T07:36:01;100980.25;;;37.00;36.82
71344;BME280;59146;43.850;25.948;2023-07-13T07:38:26;100988.38;;;36.95;36.53
71344;BME280;59146;43.850;25.948;2023-07-13T07:40:52;100987.53;;;37.16;36.54
71344;BME280;59146;43.850;25.948;2023-07-13T07:43:17;100942.09;;;36.95;36.69
71344;BME280;59146;43.850;25.948;2023-07-13T07:45:44;100959.84;;;36.81;37.34
71344;BME280;59146;43.850;25.948;2023-07-13T07:48:10;100997.13;;;36.97;37.57
71344;BME280;59146;43.850;25.948;2023-07-13T07:50:35;100953.72;;;36.68;37.66
71344;BME280;59146;43.850;25.948;2023-07-13T07:53:02;100994.78;;;36.67;37.73
71344;BME280;59146;43.850;25.948;2023-07-13T07:55:27;100981.81;;;36.52;38.57
71344;BME280;59146;43.850;25.948;2023-07-13T07:57:53;100989.97;;;36.91;37.06
71344;BME280;59146;43.850;25.948;2023-07-13T08:00:19;100952.47;;;36.76;37.19
71344;BME280;59146;43.850;25.948;2023-07-13T08:02:45;100973.19;;;37.25;36.84
71344;BME280;59146;43.850;25.948;2023-07-13T08:05:11;100957.13;;;37.24;36.34
71344;BME280;59146;43.850;25.948;2023-07-13T08:07:38;100950.34;;;37.53;35.72
71344;BME280;59146;43.850;25.948;2023-07-13T08:10:05;100991.91;;;37.38;35.70
71344;BME280;59146;43.850;25.948;2023-07-13T08:12:34;100953.88;;;36.40;37.20
71344;BME280;59146;43.850;25.948;2023-07-13T08:15:00;100878.19;;;36.37;37.00
71344;BME280;59146;43.850;25.948;2023-07-13T08:17:26;100962.78;;;36.74;36.94
71344;BME280;59146;43.850;25.948;2023-07-13T08:19:51;100961.19;;;37.00;36.40
71344;BME280;59146;43.850;25.948;2023-07-13T08:22:16;100949.25;;;37.01;35.63
71344;BME280;59146;43.850;25.948;2023-07-13T08:24:42;101001.75;;;37.23;36.54
71344;BME280;59146;43.850;25.948;2023-07-13T08:27:08;100953.41;;;36.87;36.52
71344;BME280;59146;43.850;25.948;2023-07-13T08:29:33;100953.41;;;36.87;35.82
71344;BME280;59146;43.850;25.948;2023-07-13T08:31:59;100989.97;;;36.91;36.59
71344;BME280;59146;43.850;25.948;2023-07-13T08:34:24;100957.44;;;36.62;36.90
71344;BME280;59146;43.850;25.948;2023-07-13T08:36:50;100952.94;;;36.51;37.18
71344;BME280;59146;43.850;25.948;2023-07-13T08:39:15;100995.84;;;36.66;36.98
71344;BME280;59146;43.850;25.948;2023-07-13T08:41:41;100939.78;;;36.43;37.35
71344;BME280;59146;43.850;25.948;2023-07-13T08:44:19;100979.34;;;36.51;36.71
71344;BME280;59146;43.850;25.948;2023-07-13T08:46:47;100990.91;;;36.41;37.87
71344;BME280;59146;43.850;25.948;2023-07-13T08:49:16;100987.69;;;36.44;37.28
71344;BME280;59146;43.850;25.948;2023-07-13T08:51:48;100983.78;;;36.40;38.09
71344;BME280;59146;43.850;25.948;2023-07-13T08:54:28;100998.06;;;36.47;36.86
71344;BME280;59146;43.850;25.948;2023-07-13T08:56:56;100993.00;;;36.56;37.58
71344;BME280;59146;43.850;25.948;2023-07-13T08:59:28;100981.81;;;36.52;37.96
71344;BME280;59146;43.850;25.948;2023-07-13T09:05:02;100981.47;;;36.32;38.33
71344;BME280;59146;43.850;25.948;2023-07-13T09:10:11;100972.00;;;36.35;37.72
71344;BME280;59146;43.850;25.948;2023-07-13T09:15:29;100961.50;;;36.22;37.11
71344;BME280;59146;43.850;25.948;2023-07-13T09:18:00;100964.47;;;36.58;36.87
71344;BME280;59146;43.850;25.948;2023-07-13T09:20:48;100962.94;;;36.46;37.57
71344;BME280;59146;43.850;25.948;2023-07-13T09:23:17;100933.16;;;36.39;36.70
71344;BME280;59146;43.850;25.948;2023-07-13T09:25:47;100942.41;;;36.38;36.12
71344;BME280;59146;43.850;25.948;2023-07-13T09:28:22;100930.19;;;36.19;36.34
71344;BME280;59146;43.850;25.948;2023-07-13T09:33:26;100959.81;;;36.76;36.79
71344;BME280;59146;43.850;25.948;2023-07-13T09:35:57;100953.00;;;36.95;35.48
71344;BME280;59146;43.850;25.948;2023-07-13T09:38:25;100959.41;;;37.10;35.29
71344;BME280;59146;43.850;25.948;2023-07-13T09:43:22;100913.84;;;36.79;35.54
71344;BME280;59146;43.850;25.948;2023-07-13T09:45:47;100959.47;;;37.15;35.27
71344;BME280;59146;43.850;25.948;2023-07-13T09:48:14;100982.19;;;37.26;35.48
71344;BME280;59146;43.850;25.948;2023-07-13T09:50:41;100930.78;;;37.08;35.20
71344;BME280;59146;43.850;25.948;2023-07-13T09:53:18;100959.91;;;37.56;34.46
71344;BME280;59146;43.850;25.948;2023-07-13T09:55:48;100918.91;;;37.72;33.48
71344;BME280;59146;43.850;25.948;2023-07-13T09:58:17;100921.91;;;38.07;32.97
71344;BME280;59146;43.850;25.948;2023-07-13T10:00:54;100913.81;;;37.81;33.44
71344;BME280;59146;43.850;25.948;2023-07-13T10:03:24;100909.09;;;38.08;32.97
71344;BME280;59146;43.850;25.948;2023-07-13T10:05:51;100948.44;;;37.85;32.99
71344;BME280;59146;43.850;25.948;2023-07-13T10:08:28;100922.28;;;36.99;33.46
71344;BME280;59146;43.850;25.948;2023-07-13T10:11:01;100946.41;;;37.71;33.36
71344;BME280;59146;43.850;25.948;2023-07-13T10:13:34;100940.84;;;37.87;32.15
71344;BME280;59146;43.850;25.948;2023-07-13T10:16:04;100934.72;;;38.07;32.25
71344;BME280;59146;43.850;25.948;2023-07-13T10:18:56;100891.81;;;37.92;32.34
71344;BME280;59146;43.850;25.948;2023-07-13T10:21:22;100943.34;;;38.31;31.75
71344;BME280;59146;43.850;25.948;2023-07-13T10:24:02;100937.34;;;38.34;32.10
71344;BME280;59146;43.850;25.948;2023-07-13T10:26:32;100952.72;;;38.55;31.57
71344;BME280;59146;43.850;25.948;2023-07-13T10:29:03;100914.44;;;38.35;31.19
71344;BME280;59146;43.850;25.948;2023-07-13T10:31:32;100934.72;;;38.54;31.18
71344;BME280;59146;43.850;25.948;2023-07-13T10:34:00;100938.25;;;38.49;30.77
71344;BME280;59146;43.850;25.948;2023-07-13T10:36:38;100910.13;;;38.44;30.84
71344;BME280;59146;43.850;25.948;2023-07-13T10:39:06;100904.88;;;38.32;30.67
71344;BME280;59146;43.850;25.948;2023-07-13T10:41:39;100909.59;;;38.47;30.72
71344;BME280;59146;43.850;25.948;2023-07-13T10:44:33;100891.84;;;38.44;30.56
71344;BME280;59146;43.850;25.948;2023-07-13T10:47:01;100867.06;;;38.56;30.15
71344;BME280;59146;43.850;25.948;2023-07-13T10:49:29;100888.47;;;38.89;29.61
71344;BME280;59146;43.850;25.948;2023-07-13T10:51:56;100872.59;;;38.71;29.94
71344;BME280;59146;43.850;25.948;2023-07-13T10:54:32;100901.13;;;39.30;29.46
71344;BME280;59146;43.850;25.948;2023-07-13T10:59:33;100896.47;;;39.21;28.67
71344;BME280;59146;43.850;25.948;2023-07-13T11:02:11;100882.56;;;39.42;28.17
71344;BME280;59146;43.850;25.948;2023-07-13T11:04:46;100854.69;;;39.25;28.12
71344;BME280;59146;43.850;25.948;2023-07-13T11:07:24;100879.81;;;39.52;27.72
71344;BME280;59146;43.850;25.948;2023-07-13T11:09:53;100875.72;;;39.45;27.92
71344;BME280;59146;43.850;25.948;2023-07-13T11:19:53;100866.09;;;38.92;28.60
71344;BME280;59146;43.850;25.948;2023-07-13T11:22:25;100872.31;;;38.72;28.07
71344;BME280;59146;43.850;25.948;2023-07-13T11:24:56;100870.88;;;38.60;28.63
71344;BME280;59146;43.850;25.948;2023-07-13T11:30:59;100842.88;;;38.79;28.38
71344;BME280;59146;43.850;25.948;2023-07-13T11:33:22;100850.25;;;38.99;27.57
71344;BME280;59146;43.850;25.948;2023-07-13T11:36:02;100810.94;;;38.95;26.81
71344;BME280;59146;43.850;25.948;2023-07-13T11:39:12;100850.88;;;39.31;26.46
71344;BME280;59146;43.850;25.948;2023-07-13T11:41:57;100812.84;;;39.10;27.12
71344;BME280;59146;43.850;25.948;2023-07-13T11:44:25;100841.56;;;39.37;27.02
71344;BME280;59146;43.850;25.948;2023-07-13T11:46:53;100833.38;;;39.52;27.11
71344;BME280;59146;43.850;25.948;2023-07-13T11:49:21;100830.06;;;39.65;27.06
71344;BME280;59146;43.850;25.948;2023-07-13T11:51:47;100832.81;;;39.71;26.99
71344;BME280;59146;43.850;25.948;2023-07-13T11:54:26;100835.03;;;39.58;27.05
71344;BME280;59146;43.850;25.948;2023-07-13T11:56:53;100780.63;;;39.07;27.10
71344;BME280;59146;43.850;25.948;2023-07-13T11:59:20;100813.69;;;39.20;26.66
71344;BME280;59146;43.850;25.948;2023-07-13T12:01:50;100803.31;;;39.22;26.38
71344;BME280;59146;43.850;25.948;2023-07-13T12:04:27;100817.22;;;39.51;26.35
71344;BME280;59146;43.850;25.948;2023-07-13T12:07:03;100813.94;;;39.54;26.16
71344;BME280;59146;43.850;25.948;2023-07-13T12:09:28;100781.47;;;39.17;26.41
71344;BME280;59146;43.850;25.948;2023-07-13T12:11:57;100757.97;;;39.21;26.08
71344;BME280;59146;43.850;25.948;2023-07-13T12:14:23;100807.66;;;39.53;25.42
71344;BME280;59146;43.850;25.948;2023-07-13T12:16:50;100807.13;;;39.46;25.36
71344;BME280;59146;43.850;25.948;2023-07-13T12:19:36;100820.78;;;39.72;25.19
71344;BME280;59146;43.850;25.948;2023-07-13T12:22:01;100776.25;;;39.31;25.20
71344;BME280;59146;43.850;25.948;2023-07-13T12:24:27;100795.09;;;39.52;25.23
71344;BME280;59146;43.850;25.948;2023-07-13T12:27:03;100809.78;;;39.92;25.46
71344;BME280;59146;43.850;25.948;2023-07-13T12:29:30;100808.16;;;40.01;24.57
71344;BME280;59146;43.850;25.948;2023-07-13T12:31:56;100796.16;;;39.77;24.66
71344;BME280;59146;43.850;25.948;2023-07-13T12:34:24;100792.06;;;39.49;24.93
71344;BME280;59146;43.850;25.948;2023-07-13T12:36:56;100806.56;;;39.59;24.93
71344;BME280;59146;43.850;25.948;2023-07-13T12:41:53;100814.47;;;39.76;24.00
71344;BME280;59146;43.850;25.948;2023-07-13T12:44:27;100803.31;;;39.57;24.22
71344;BME280;59146;43.850;25.948;2023-07-13T12:46:57;100798.63;;;39.73;23.85
71344;BME280;59146;43.850;25.948;2023-07-13T12:49:27;100805.75;;;39.69;23.56
71344;BME280;59146;43.850;25.948;2023-07-13T12:51:59;100770.81;;;39.31;23.37
71344;BME280;59146;43.850;25.948;2023-07-13T12:54:26;100757.97;;;39.21;23.03
71344;BME280;59146;43.850;25.948;2023-07-13T12:56:53;100752.50;;;39.16;22.82
71344;BME280;59146;43.850;25.948;2023-07-13T12:59:21;100759.06;;;39.25;23.05
71344;BME280;59146;43.850;25.948;2023-07-13T13:01:48;100758.19;;;39.55;22.60
71344;BME280;59146;43.850;25.948;2023-07-13T13:04:15;100785.22;;;39.82;23.04
71344;BME280;59146;43.850;25.948;2023-07-13T13:06:41;100756.50;;;39.84;21.85
71344;BME280;59146;43.850;25.948;2023-07-13T13:09:14;100792.84;;;39.85;22.16
71344;BME280;59146;43.850;25.948;2023-07-13T13:11:40;100788.78;;;39.82;22.51